sensor_id;sensor_type;location;lat;lon;timestamp;temperature;humidity
66576;SHT31;53428;47.686;16.584;2023-05-10T00:00:07;9.74;80.94
66576;SHT31;53428;47.686;16.584;2023-05-10T00:05:06;9.72;80.49
66576;SHT31;53428;47.686;16.584;2023-05-10T00:10:06;9.68;81.37
66576;SHT31;53428;47.686;16.584;2023-05-10T00:15:06;9.69;80.61
66576;SHT31;53428;47.686;16.584;2023-05-10T00:20:06;9.63;81.28
66576;SHT31;53428;47.686;16.584;2023-05-10T00:25:06;9.68;81.01
66576;SHT31;53428;47.686;16.584;2023-05-10T00:30:06;9.48;80.95
66576;SHT31;53428;47.686;16.584;2023-05-10T00:35:06;9.49;80.40
66576;SHT31;53428;47.686;16.584;2023-05-10T00:40:06;9.35;80.96
66576;SHT31;53428;47.686;16.584;2023-05-10T00:45:06;9.38;80.69
66576;SHT31;53428;47.686;16.584;2023-05-10T00:50:06;9.38;81.23
66576;SHT31;53428;47.686;16.584;2023-05-10T00:55:06;9.44;80.92
66576;SHT31;53428;47.686;16.584;2023-05-10T01:00:06;9.28;81.50
66576;SHT31;53428;47.686;16.584;2023-05-10T01:05:06;9.14;81.91
66576;SHT31;53428;47.686;16.584;2023-05-10T01:10:06;9.26;81.17
66576;SHT31;53428;47.686;16.584;2023-05-10T01:15:09;9.24;81.37
66576;SHT31;53428;47.686;16.584;2023-05-10T01:20:10;9.13;81.50
66576;SHT31;53428;47.686;16.584;2023-05-10T01:25:33;9.01;82.12
66576;SHT31;53428;47.686;16.584;2023-05-10T01:35:47;9.06;81.96
66576;SHT31;53428;47.686;16.584;2023-05-10T01:46:12;8.99;81.82
66576;SHT31;53428;47.686;16.584;2023-05-10T01:51:19;8.89;82.05
66576;SHT31;53428;47.686;16.584;2023-05-10T01:56:24;8.86;82.22
66576;SHT31;53428;47.686;16.584;2023-05-10T02:01:25;8.66;82.93
66576;SHT31;53428;47.686;16.584;2023-05-10T02:06:26;8.66;83.10
66576;SHT31;53428;47.686;16.584;2023-05-10T02:11:27;8.76;82.74
66576;SHT31;53428;47.686;16.584;2023-05-10T02:16:27;8.52;83.17
66576;SHT31;53428;47.686;16.584;2023-05-10T02:21:30;8.76;82.85
66576;SHT31;53428;47.686;16.584;2023-05-10T02:26:31;8.87;81.97
66576;SHT31;53428;47.686;16.584;2023-05-10T02:31:33;8.84;82.06
66576;SHT31;53428;47.686;16.584;2023-05-10T02:36:32;8.77;82.47
66576;SHT31;53428;47.686;16.584;2023-05-10T02:41:32;8.62;82.87
66576;SHT31;53428;47.686;16.584;2023-05-10T02:46:32;8.59;83.46
66576;SHT31;53428;47.686;16.584;2023-05-10T02:51:34;8.52;83.81
66576;SHT31;53428;47.686;16.584;2023-05-10T02:56:40;8.63;83.23
66576;SHT31;53428;47.686;16.584;2023-05-10T03:01:41;8.65;83.23
66576;SHT31;53428;47.686;16.584;2023-05-10T03:06:41;8.53;83.23
66576;SHT31;53428;47.686;16.584;2023-05-10T03:12:00;8.52;83.55
66576;SHT31;53428;47.686;16.584;2023-05-10T03:17:15;8.66;83.36
66576;SHT31;53428;47.686;16.584;2023-05-10T03:22:25;8.46;83.86
66576;SHT31;53428;47.686;16.584;2023-05-10T03:27:26;8.48;83.99
66576;SHT31;53428;47.686;16.584;2023-05-10T03:32:28;8.32;84.37
66576;SHT31;53428;47.686;16.584;2023-05-10T03:37:29;8.30;84.76
66576;SHT31;53428;47.686;16.584;2023-05-10T03:42:28;8.21;85.35
66576;SHT31;53428;47.686;16.584;2023-05-10T03:47:27;8.27;85.88
66576;SHT31;53428;47.686;16.584;2023-05-10T03:52:28;8.53;84.79
66576;SHT31;53428;47.686;16.584;2023-05-10T03:57:28;8.45;85.00
66576;SHT31;53428;47.686;16.584;2023-05-10T04:02:27;8.49;85.03
66576;SHT31;53428;47.686;16.584;2023-05-10T04:07:26;8.48;85.32
66576;SHT31;53428;47.686;16.584;2023-05-10T04:12:25;8.46;85.09
66576;SHT31;53428;47.686;16.584;2023-05-10T04:17:25;8.62;84.87
66576;SHT31;53428;47.686;16.584;2023-05-10T04:22:24;8.66;84.83
66576;SHT31;53428;47.686;16.584;2023-05-10T04:27:23;8.68;84.78
66576;SHT31;53428;47.686;16.584;2023-05-10T04:32:23;8.76;84.98
66576;SHT31;53428;47.686;16.584;2023-05-10T04:37:22;8.96;84.68
66576;SHT31;53428;47.686;16.584;2023-05-10T04:42:22;9.13;84.16
66576;SHT31;53428;47.686;16.584;2023-05-10T04:47:21;9.34;84.19
66576;SHT31;53428;47.686;16.584;2023-05-10T04:52:20;9.41;83.92
66576;SHT31;53428;47.686;16.584;2023-05-10T04:57:19;9.56;83.76
66576;SHT31;53428;47.686;16.584;2023-05-10T05:02:19;9.87;83.09
66576;SHT31;53428;47.686;16.584;2023-05-10T05:07:18;10.02;82.98
66576;SHT31;53428;47.686;16.584;2023-05-10T05:12:17;10.21;82.46
66576;SHT31;53428;47.686;16.584;2023-05-10T05:17:17;10.37;82.34
66576;SHT31;53428;47.686;16.584;2023-05-10T05:22:16;10.69;81.29
66576;SHT31;53428;47.686;16.584;2023-05-10T05:27:15;10.89;80.83
66576;SHT31;53428;47.686;16.584;2023-05-10T05:32:14;11.20;80.28
66576;SHT31;53428;47.686;16.584;2023-05-10T05:37:15;11.34;80.18
66576;SHT31;53428;47.686;16.584;2023-05-10T05:42:14;11.50;79.98
66576;SHT31;53428;47.686;16.584;2023-05-10T05:47:15;11.67;79.82
66576;SHT31;53428;47.686;16.584;2023-05-10T05:52:15;12.08;78.71
66576;SHT31;53428;47.686;16.584;2023-05-10T05:57:15;12.40;77.83
66576;SHT31;53428;47.686;16.584;2023-05-10T06:02:14;12.61;77.23
66576;SHT31;53428;47.686;16.584;2023-05-10T06:07:13;12.84;76.85
66576;SHT31;53428;47.686;16.584;2023-05-10T06:12:13;12.97;77.21
66576;SHT31;53428;47.686;16.584;2023-05-10T06:17:12;13.08;77.65
66576;SHT31;53428;47.686;16.584;2023-05-10T06:22:11;13.25;77.37
66576;SHT31;53428;47.686;16.584;2023-05-10T06:27:10;13.31;76.99
66576;SHT31;53428;47.686;16.584;2023-05-10T06:32:09;13.45;77.12
66576;SHT31;53428;47.686;16.584;2023-05-10T06:37:08;13.55;76.73
66576;SHT31;53428;47.686;16.584;2023-05-10T06:42:08;13.52;76.70
66576;SHT31;53428;47.686;16.584;2023-05-10T06:47:07;13.50;76.85
66576;SHT31;53428;47.686;16.584;2023-05-10T06:52:06;13.70;76.74
66576;SHT31;53428;47.686;16.584;2023-05-10T06:57:06;13.59;77.44
66576;SHT31;53428;47.686;16.584;2023-05-10T07:02:05;13.86;77.33
66576;SHT31;53428;47.686;16.584;2023-05-10T07:07:05;14.03;76.72
66576;SHT31;53428;47.686;16.584;2023-05-10T07:12:04;14.14;76.69
66576;SHT31;53428;47.686;16.584;2023-05-10T07:17:04;14.18;76.08
66576;SHT31;53428;47.686;16.584;2023-05-10T07:22:03;14.32;76.40
66576;SHT31;53428;47.686;16.584;2023-05-10T07:27:02;14.66;76.30
66576;SHT31;53428;47.686;16.584;2023-05-10T07:32:03;14.83;74.71
66576;SHT31;53428;47.686;16.584;2023-05-10T07:37:02;14.92;74.72
66576;SHT31;53428;47.686;16.584;2023-05-10T07:42:01;15.10;73.94
66576;SHT31;53428;47.686;16.584;2023-05-10T07:47:02;15.31;72.94
66576;SHT31;53428;47.686;16.584;2023-05-10T07:52:03;15.98;70.14
66576;SHT31;53428;47.686;16.584;2023-05-10T07:57:02;16.55;68.41
66576;SHT31;53428;47.686;16.584;2023-05-10T08:02:01;17.11;66.31
66576;SHT31;53428;47.686;16.584;2023-05-10T08:07:01;17.39;66.17
66576;SHT31;53428;47.686;16.584;2023-05-10T08:12:00;17.73;64.73
66576;SHT31;53428;47.686;16.584;2023-05-10T08:17:00;17.92;64.03
66576;SHT31;53428;47.686;16.584;2023-05-10T08:21:59;17.34;64.64
66576;SHT31;53428;47.686;16.584;2023-05-10T08:26:58;18.12;63.27
66576;SHT31;53428;47.686;16.584;2023-05-10T08:31:57;18.28;63.50
66576;SHT31;53428;47.686;16.584;2023-05-10T08:36:56;18.49;62.12
66576;SHT31;53428;47.686;16.584;2023-05-10T08:41:58;18.40;62.61
66576;SHT31;53428;47.686;16.584;2023-05-10T08:46:59;18.02;61.89
66576;SHT31;53428;47.686;16.584;2023-05-10T08:52:03;18.06;64.85
66576;SHT31;53428;47.686;16.584;2023-05-10T08:57:04;18.02;64.46
66576;SHT31;53428;47.686;16.584;2023-05-10T09:02:04;17.99;63.81
66576;SHT31;53428;47.686;16.584;2023-05-10T09:07:04;18.56;63.88
66576;SHT31;53428;47.686;16.584;2023-05-10T09:12:04;19.00;62.04
66576;SHT31;53428;47.686;16.584;2023-05-10T09:17:04;18.56;62.85
66576;SHT31;53428;47.686;16.584;2023-05-10T09:22:03;19.07;60.58
66576;SHT31;53428;47.686;16.584;2023-05-10T09:27:03;19.53;59.90
66576;SHT31;53428;47.686;16.584;2023-05-10T09:32:02;20.20;59.41
66576;SHT31;53428;47.686;16.584;2023-05-10T09:37:02;20.28;57.18
66576;SHT31;53428;47.686;16.584;2023-05-10T09:42:08;19.74;59.01
66576;SHT31;53428;47.686;16.584;2023-05-10T09:47:07;19.58;57.59
66576;SHT31;53428;47.686;16.584;2023-05-10T09:52:07;19.76;56.55
66576;SHT31;53428;47.686;16.584;2023-05-10T09:57:20;19.79;56.91
66576;SHT31;53428;47.686;16.584;2023-05-10T10:02:19;19.76;56.53
66576;SHT31;53428;47.686;16.584;2023-05-10T10:07:23;19.58;54.91
66576;SHT31;53428;47.686;16.584;2023-05-10T10:12:23;19.98;55.78
66576;SHT31;53428;47.686;16.584;2023-05-10T10:17:26;20.48;54.83
66576;SHT31;53428;47.686;16.584;2023-05-10T10:22:26;20.51;55.86
66576;SHT31;53428;47.686;16.584;2023-05-10T10:27:40;20.32;56.26
66576;SHT31;53428;47.686;16.584;2023-05-10T10:33:05;20.35;55.36
66576;SHT31;53428;47.686;16.584;2023-05-10T10:38:08;20.48;55.80
66576;SHT31;53428;47.686;16.584;2023-05-10T10:43:25;20.89;54.37
66576;SHT31;53428;47.686;16.584;2023-05-10T10:48:24;21.08;53.24
66576;SHT31;53428;47.686;16.584;2023-05-10T10:53:27;21.14;52.48
66576;SHT31;53428;47.686;16.584;2023-05-10T10:58:31;21.86;51.80
66576;SHT31;53428;47.686;16.584;2023-05-10T11:03:33;21.86;50.56
66576;SHT31;53428;47.686;16.584;2023-05-10T11:08:35;22.40;51.20
66576;SHT31;53428;47.686;16.584;2023-05-10T11:13:44;21.88;50.24
66576;SHT31;53428;47.686;16.584;2023-05-10T11:23:54;20.11;54.67
66576;SHT31;53428;47.686;16.584;2023-05-10T11:28:57;21.00;52.38
66576;SHT31;53428;47.686;16.584;2023-05-10T11:34:01;20.49;53.89
66576;SHT31;53428;47.686;16.584;2023-05-10T11:39:03;21.61;51.17
66576;SHT31;53428;47.686;16.584;2023-05-10T11:44:02;21.95;50.25
66576;SHT31;53428;47.686;16.584;2023-05-10T11:49:02;20.58;52.71
66576;SHT31;53428;47.686;16.584;2023-05-10T11:54:08;21.51;52.64
66576;SHT31;53428;47.686;16.584;2023-05-10T11:59:08;24.40;45.76
66576;SHT31;53428;47.686;16.584;2023-05-10T12:04:07;21.78;51.40
66576;SHT31;53428;47.686;16.584;2023-05-10T12:09:07;21.52;52.06
66576;SHT31;53428;47.686;16.584;2023-05-10T12:14:08;21.37;52.39
66576;SHT31;53428;47.686;16.584;2023-05-10T12:19:07;21.77;49.73
66576;SHT31;53428;47.686;16.584;2023-05-10T12:24:07;20.41;52.98
66576;SHT31;53428;47.686;16.584;2023-05-10T12:29:18;23.32;47.66
66576;SHT31;53428;47.686;16.584;2023-05-10T12:34:29;20.39;53.76
66576;SHT31;53428;47.686;16.584;2023-05-10T12:39:42;23.59;48.54
66576;SHT31;53428;47.686;16.584;2023-05-10T12:44:42;25.28;44.15
66576;SHT31;53428;47.686;16.584;2023-05-10T12:49:41;23.59;47.78
66576;SHT31;53428;47.686;16.584;2023-05-10T12:54:41;22.02;50.69
66576;SHT31;53428;47.686;16.584;2023-05-10T12:59:40;25.20;44.32
66576;SHT31;53428;47.686;16.584;2023-05-10T13:04:39;23.54;46.23
66576;SHT31;53428;47.686;16.584;2023-05-10T13:09:39;25.30;44.13
66576;SHT31;53428;47.686;16.584;2023-05-10T13:14:38;25.10;44.15
66576;SHT31;53428;47.686;16.584;2023-05-10T13:19:39;22.85;47.59
66576;SHT31;53428;47.686;16.584;2023-05-10T13:24:39;22.69;46.36
66576;SHT31;53428;47.686;16.584;2023-05-10T13:29:38;21.88;47.46
66576;SHT31;53428;47.686;16.584;2023-05-10T13:34:38;24.02;44.38
66576;SHT31;53428;47.686;16.584;2023-05-10T13:39:37;25.28;41.93
66576;SHT31;53428;47.686;16.584;2023-05-10T13:44:37;26.86;39.89
66576;SHT31;53428;47.686;16.584;2023-05-10T13:49:37;26.89;39.42
66576;SHT31;53428;47.686;16.584;2023-05-10T13:54:37;29.12;36.78
66576;SHT31;53428;47.686;16.584;2023-05-10T13:59:37;27.37;40.67
66576;SHT31;53428;47.686;16.584;2023-05-10T14:04:36;28.29;38.25
66576;SHT31;53428;47.686;16.584;2023-05-10T14:09:36;28.98;36.71
66576;SHT31;53428;47.686;16.584;2023-05-10T14:14:36;26.17;40.41
66576;SHT31;53428;47.686;16.584;2023-05-10T14:19:35;27.15;38.96
66576;SHT31;53428;47.686;16.584;2023-05-10T14:24:34;25.11;41.69
66576;SHT31;53428;47.686;16.584;2023-05-10T14:29:34;22.72;44.84
66576;SHT31;53428;47.686;16.584;2023-05-10T14:34:33;24.83;42.10
66576;SHT31;53428;47.686;16.584;2023-05-10T14:39:33;26.92;40.22
66576;SHT31;53428;47.686;16.584;2023-05-10T14:44:33;26.13;41.38
66576;SHT31;53428;47.686;16.584;2023-05-10T14:49:32;24.79;43.25
66576;SHT31;53428;47.686;16.584;2023-05-10T14:54:31;22.33;46.79
66576;SHT31;53428;47.686;16.584;2023-05-10T14:59:32;21.85;48.50
66576;SHT31;53428;47.686;16.584;2023-05-10T15:04:31;21.10;49.92
66576;SHT31;53428;47.686;16.584;2023-05-10T15:09:31;21.10;50.30
66576;SHT31;53428;47.686;16.584;2023-05-10T15:14:30;20.82;50.55
66576;SHT31;53428;47.686;16.584;2023-05-10T15:19:30;20.27;51.68
66576;SHT31;53428;47.686;16.584;2023-05-10T15:24:29;22.64;48.36
66576;SHT31;53428;47.686;16.584;2023-05-10T15:29:28;26.64;42.46
66576;SHT31;53428;47.686;16.584;2023-05-10T15:34:28;25.46;42.50
66576;SHT31;53428;47.686;16.584;2023-05-10T15:39:28;26.07;42.67
66576;SHT31;53428;47.686;16.584;2023-05-10T15:44:27;25.14;43.91
66576;SHT31;53428;47.686;16.584;2023-05-10T15:49:26;23.08;46.79
66576;SHT31;53428;47.686;16.584;2023-05-10T15:54:26;22.35;48.16
66576;SHT31;53428;47.686;16.584;2023-05-10T15:59:25;21.61;50.05
66576;SHT31;53428;47.686;16.584;2023-05-10T16:04:24;21.33;51.01
66576;SHT31;53428;47.686;16.584;2023-05-10T16:09:24;21.13;51.67
66576;SHT31;53428;47.686;16.584;2023-05-10T16:14:23;20.28;52.35
66576;SHT31;53428;47.686;16.584;2023-05-10T16:19:23;20.18;52.42
66576;SHT31;53428;47.686;16.584;2023-05-10T16:24:22;20.00;52.81
66576;SHT31;53428;47.686;16.584;2023-05-10T16:29:21;19.86;53.08
66576;SHT31;53428;47.686;16.584;2023-05-10T16:34:21;19.31;54.38
66576;SHT31;53428;47.686;16.584;2023-05-10T16:39:22;19.35;54.11
66576;SHT31;53428;47.686;16.584;2023-05-10T16:44:21;19.33;54.56
66576;SHT31;53428;47.686;16.584;2023-05-10T16:49:21;19.12;54.22
66576;SHT31;53428;47.686;16.584;2023-05-10T16:54:20;18.87;54.78
66576;SHT31;53428;47.686;16.584;2023-05-10T16:59:20;18.74;54.99
66576;SHT31;53428;47.686;16.584;2023-05-10T17:04:19;18.52;56.10
66576;SHT31;53428;47.686;16.584;2023-05-10T17:09:19;18.43;56.49
66576;SHT31;53428;47.686;16.584;2023-05-10T17:14:18;18.37;56.79
66576;SHT31;53428;47.686;16.584;2023-05-10T17:19:17;18.30;56.68
66576;SHT31;53428;47.686;16.584;2023-05-10T17:24:17;18.33;57.08
66576;SHT31;53428;47.686;16.584;2023-05-10T17:29:16;18.29;57.42
66576;SHT31;53428;47.686;16.584;2023-05-10T17:34:15;18.10;58.54
66576;SHT31;53428;47.686;16.584;2023-05-10T17:39:14;17.94;59.25
66576;SHT31;53428;47.686;16.584;2023-05-10T17:44:14;17.94;59.24
66576;SHT31;53428;47.686;16.584;2023-05-10T17:49:13;17.78;59.83
66576;SHT31;53428;47.686;16.584;2023-05-10T17:54:13;17.67;60.36
66576;SHT31;53428;47.686;16.584;2023-05-10T17:59:13;17.57;61.07
66576;SHT31;53428;47.686;16.584;2023-05-10T18:04:12;17.40;61.38
66576;SHT31;53428;47.686;16.584;2023-05-10T18:09:11;17.32;61.32
66576;SHT31;53428;47.686;16.584;2023-05-10T18:14:11;17.20;61.54
66576;SHT31;53428;47.686;16.584;2023-05-10T18:19:10;17.13;61.78
66576;SHT31;53428;47.686;16.584;2023-05-10T18:24:10;17.05;62.03
66576;SHT31;53428;47.686;16.584;2023-05-10T18:29:09;16.98;62.31
66576;SHT31;53428;47.686;16.584;2023-05-10T18:34:09;16.92;62.49
66576;SHT31;53428;47.686;16.584;2023-05-10T18:39:11;16.89;63.09
66576;SHT31;53428;47.686;16.584;2023-05-10T18:44:11;16.81;63.37
66576;SHT31;53428;47.686;16.584;2023-05-10T18:49:10;16.78;63.14
66576;SHT31;53428;47.686;16.584;2023-05-10T18:54:10;16.71;63.61
66576;SHT31;53428;47.686;16.584;2023-05-10T18:59:10;16.72;63.78
66576;SHT31;53428;47.686;16.584;2023-05-10T19:04:10;16.63;64.21
66576;SHT31;53428;47.686;16.584;2023-05-10T19:09:09;16.57;64.73
66576;SHT31;53428;47.686;16.584;2023-05-10T19:14:09;16.50;64.75
66576;SHT31;53428;47.686;16.584;2023-05-10T19:19:10;16.45;65.19
66576;SHT31;53428;47.686;16.584;2023-05-10T19:24:10;16.38;65.36
66576;SHT31;53428;47.686;16.584;2023-05-10T19:29:09;16.40;65.62
66576;SHT31;53428;47.686;16.584;2023-05-10T19:34:09;16.36;65.48
66576;SHT31;53428;47.686;16.584;2023-05-10T19:39:09;16.24;65.99
66576;SHT31;53428;47.686;16.584;2023-05-10T19:44:08;16.23;65.84
66576;SHT31;53428;47.686;16.584;2023-05-10T19:49:08;16.21;65.86
66576;SHT31;53428;47.686;16.584;2023-05-10T19:54:08;16.20;65.95
66576;SHT31;53428;47.686;16.584;2023-05-10T19:59:07;16.13;66.09
66576;SHT31;53428;47.686;16.584;2023-05-10T20:04:07;16.10;66.35
66576;SHT31;53428;47.686;16.584;2023-05-10T20:09:07;16.09;66.58
66576;SHT31;53428;47.686;16.584;2023-05-10T20:14:08;16.02;66.62
66576;SHT31;53428;47.686;16.584;2023-05-10T20:19:07;16.00;66.64
66576;SHT31;53428;47.686;16.584;2023-05-10T20:24:07;15.95;66.88
66576;SHT31;53428;47.686;16.584;2023-05-10T20:29:06;15.85;67.16
66576;SHT31;53428;47.686;16.584;2023-05-10T20:34:07;15.83;67.21
66576;SHT31;53428;47.686;16.584;2023-05-10T20:39:06;15.92;66.73
66576;SHT31;53428;47.686;16.584;2023-05-10T20:44:07;15.81;66.87
66576;SHT31;53428;47.686;16.584;2023-05-10T20:49:07;15.73;67.40
66576;SHT31;53428;47.686;16.584;2023-05-10T20:54:07;15.70;67.27
66576;SHT31;53428;47.686;16.584;2023-05-10T20:59:06;15.63;67.55
66576;SHT31;53428;47.686;16.584;2023-05-10T21:04:05;15.65;67.90
66576;SHT31;53428;47.686;16.584;2023-05-10T21:09:05;15.62;67.87
66576;SHT31;53428;47.686;16.584;2023-05-10T21:14:04;15.63;67.27
66576;SHT31;53428;47.686;16.584;2023-05-10T21:19:04;15.63;67.35
66576;SHT31;53428;47.686;16.584;2023-05-10T21:24:05;15.48;67.81
66576;SHT31;53428;47.686;16.584;2023-05-10T21:29:05;15.44;67.99
66576;SHT31;53428;47.686;16.584;2023-05-10T21:34:04;15.37;68.27
66576;SHT31;53428;47.686;16.584;2023-05-10T21:39:04;15.35;67.97
66576;SHT31;53428;47.686;16.584;2023-05-10T21:44:03;15.32;67.73
66576;SHT31;53428;47.686;16.584;2023-05-10T21:49:03;15.28;67.98
66576;SHT31;53428;47.686;16.584;2023-05-10T21:54:03;15.19;68.13
66576;SHT31;53428;47.686;16.584;2023-05-10T21:59:02;15.14;68.23
66576;SHT31;53428;47.686;16.584;2023-05-10T22:04:01;15.08;68.21
66576;SHT31;53428;47.686;16.584;2023-05-10T22:09:01;15.03;68.54
66576;SHT31;53428;47.686;16.584;2023-05-10T22:14:00;14.97;68.67
66576;SHT31;53428;47.686;16.584;2023-05-10T22:18:59;14.87;68.93
66576;SHT31;53428;47.686;16.584;2023-05-10T22:23:59;14.89;69.14
66576;SHT31;53428;47.686;16.584;2023-05-10T22:28:58;14.82;69.28
66576;SHT31;53428;47.686;16.584;2023-05-10T22:33:58;14.77;69.59
66576;SHT31;53428;47.686;16.584;2023-05-10T22:38:57;14.76;69.63
66576;SHT31;53428;47.686;16.584;2023-05-10T22:43:57;14.71;69.13
66576;SHT31;53428;47.686;16.584;2023-05-10T22:48:57;14.69;69.04
66576;SHT31;53428;47.686;16.584;2023-05-10T22:53:57;14.66;69.37
66576;SHT31;53428;47.686;16.584;2023-05-10T22:58:56;14.51;69.89
66576;SHT31;53428;47.686;16.584;2023-05-10T23:03:55;14.51;69.59
66576;SHT31;53428;47.686;16.584;2023-05-10T23:08:55;14.39;69.91
66576;SHT31;53428;47.686;16.584;2023-05-10T23:13:54;14.28;70.41
66576;SHT31;53428;47.686;16.584;2023-05-10T23:18:54;14.15;70.46
66576;SHT31;53428;47.686;16.584;2023-05-10T23:23:53;14.14;70.31
66576;SHT31;53428;47.686;16.584;2023-05-10T23:28:53;14.00;70.85
66576;SHT31;53428;47.686;16.584;2023-05-10T23:33:52;13.96;70.97
66576;SHT31;53428;47.686;16.584;2023-05-10T23:38:53;13.87;71.31
66576;SHT31;53428;47.686;16.584;2023-05-10T23:43:52;13.90;70.91
66576;SHT31;53428;47.686;16.584;2023-05-10T23:48:52;13.88;70.97
66576;SHT31;53428;47.686;16.584;2023-05-10T23:53:51;13.84;71.16
66576;SHT31;53428;47.686;16.584;2023-05-10T23:58:50;13.86;71.20
